createdAt,value
2018-09-14T00:01:28.883Z,13.90
2018-09-14T00:03:57.330Z,13.80
2018-09-14T00:06:25.842Z,13.80
2018-09-14T00:08:54.322Z,13.70
2018-09-14T00:11:22.783Z,13.60
2018-09-14T00:13:51.345Z,13.60
2018-09-14T00:16:19.810Z,13.50
2018-09-14T00:18:48.282Z,13.50
2018-09-14T00:21:16.794Z,13.40
2018-09-14T00:23:45.264Z,13.30
2018-09-14T00:26:13.720Z,13.30
2018-09-14T00:28:42.314Z,13.20
2018-09-14T00:31:10.778Z,13.10
2018-09-14T00:33:39.283Z,13.10
2018-09-14T00:36:07.866Z,13.00
2018-09-14T00:38:36.307Z,13.00
2018-09-14T00:41:04.824Z,12.90
2018-09-14T00:43:33.302Z,12.90
2018-09-14T00:46:01.774Z,12.80
2018-09-14T00:48:30.230Z,12.80
2018-09-14T00:50:58.751Z,12.70
2018-09-14T00:53:27.310Z,12.70
2018-09-14T00:55:55.738Z,12.70
2018-09-14T00:58:24.247Z,12.60
2018-09-14T01:00:52.722Z,12.60
2018-09-14T01:03:21.335Z,12.60
2018-09-14T01:05:49.846Z,12.60
2018-09-14T01:08:18.322Z,12.50
2018-09-14T01:10:46.774Z,12.50
2018-09-14T01:13:15.234Z,12.50
2018-09-14T01:15:43.710Z,12.50
2018-09-14T01:18:12.150Z,12.50
2018-09-14T01:20:40.673Z,12.50
2018-09-14T01:23:09.126Z,12.50
2018-09-14T01:25:37.566Z,12.50
2018-09-14T01:28:06.923Z,12.50
2018-09-14T01:30:35.352Z,12.50
2018-09-14T01:33:03.838Z,12.50
2018-09-14T01:35:37.610Z,12.50
2018-09-14T01:38:06.146Z,12.50
2018-09-14T01:40:34.632Z,12.50
2018-09-14T01:43:03.093Z,12.40
2018-09-14T01:45:31.528Z,12.40
2018-09-14T01:47:59.972Z,12.40
2018-09-14T01:50:28.474Z,12.40
2018-09-14T01:52:56.925Z,12.40
2018-09-14T01:55:25.363Z,12.40
2018-09-14T01:57:53.911Z,12.30
2018-09-14T02:00:22.353Z,12.30
2018-09-14T02:02:50.831Z,12.30
2018-09-14T02:05:19.382Z,12.30
2018-09-14T02:07:47.838Z,12.30
2018-09-14T02:10:22.874Z,12.20
2018-09-14T02:12:52.443Z,12.20
2018-09-14T02:15:20.890Z,12.20
2018-09-14T02:17:49.429Z,12.20
2018-09-14T02:20:19.027Z,12.20
2018-09-14T02:22:48.162Z,12.20
2018-09-14T02:25:16.635Z,12.10
2018-09-14T02:27:45.082Z,12.10
2018-09-14T02:30:13.555Z,12.10
2018-09-14T02:32:42.070Z,12.20
2018-09-14T02:35:10.511Z,12.10
2018-09-14T02:37:39.047Z,12.20
2018-09-14T02:40:07.615Z,12.20
2018-09-14T02:42:36.115Z,12.20
2018-09-14T02:45:05.141Z,12.20
2018-09-14T02:47:33.663Z,12.20
2018-09-14T02:50:02.134Z,12.20
2018-09-14T02:52:30.582Z,12.20
2018-09-14T02:54:59.132Z,12.20
2018-09-14T02:57:27.582Z,12.20
2018-09-14T02:59:56.080Z,12.20
2018-09-14T03:02:24.602Z,12.20
2018-09-14T03:04:53.452Z,12.20
2018-09-14T03:07:21.915Z,12.20
2018-09-14T03:09:50.428Z,12.20
2018-09-14T03:12:18.892Z,12.20
2018-09-14T03:14:47.354Z,12.20
2018-09-14T03:17:15.842Z,12.20
2018-09-14T03:19:44.285Z,12.20
2018-09-14T03:22:12.726Z,12.20
2018-09-14T03:24:41.246Z,12.20
2018-09-14T03:27:09.712Z,12.20
2018-09-14T03:29:38.192Z,12.20
2018-09-14T03:32:06.742Z,12.20
2018-09-14T03:34:35.224Z,12.20
2018-09-14T03:37:03.697Z,12.20
2018-09-14T03:39:32.310Z,12.30
2018-09-14T03:42:00.804Z,12.20
2018-09-14T03:44:29.251Z,12.30
2018-09-14T03:46:57.749Z,12.20
2018-09-14T03:49:26.187Z,12.20
2018-09-14T03:51:54.614Z,12.20
2018-09-14T03:54:23.495Z,12.20
2018-09-14T03:56:51.939Z,12.20
2018-09-14T03:59:20.379Z,12.30
2018-09-14T04:01:48.882Z,12.20
2018-09-14T04:04:17.327Z,12.30
2018-09-14T04:06:45.905Z,12.30
2018-09-14T04:09:14.395Z,12.30
2018-09-14T04:11:42.846Z,12.30
2018-09-14T04:14:11.286Z,12.30
2018-09-14T04:16:39.750Z,12.30
2018-09-14T04:19:08.210Z,12.30
2018-09-14T04:21:36.897Z,12.30
2018-09-14T04:24:05.409Z,12.30
2018-09-14T04:26:33.891Z,12.30
2018-09-14T04:29:02.347Z,12.30
2018-09-14T04:31:30.859Z,12.30
2018-09-14T04:33:59.293Z,12.30
2018-09-14T04:36:27.731Z,12.20
2018-09-14T04:38:56.234Z,12.20
2018-09-14T04:41:24.779Z,12.20
2018-09-14T04:43:53.234Z,12.20
2018-09-14T04:46:21.715Z,12.20
2018-09-14T04:48:50.162Z,12.20
2018-09-14T04:51:18.630Z,12.20
2018-09-14T04:53:47.158Z,12.20
2018-09-14T04:56:15.606Z,12.20
2018-09-14T04:58:44.085Z,12.10
2018-09-14T05:01:12.634Z,12.20
2018-09-14T05:03:41.094Z,12.20
2018-09-14T05:06:09.634Z,12.20
2018-09-14T05:08:38.137Z,12.20
2018-09-14T05:11:06.621Z,12.20
2018-09-14T05:13:35.127Z,12.20
2018-09-14T05:16:03.637Z,12.20
2018-09-14T05:18:32.215Z,12.20
2018-09-14T05:21:00.725Z,12.20
2018-09-14T05:23:29.255Z,12.20
2018-09-14T05:25:57.718Z,12.30
2018-09-14T05:28:26.174Z,12.30
2018-09-14T05:30:54.698Z,12.40
2018-09-14T05:33:23.149Z,12.50
2018-09-14T05:35:51.603Z,12.50
2018-09-14T05:38:20.189Z,12.60
2018-09-14T05:40:48.591Z,12.70
2018-09-14T05:43:17.159Z,12.80
2018-09-14T05:45:45.743Z,12.90
2018-09-14T05:48:14.171Z,13.00
2018-09-14T05:50:42.614Z,13.10
2018-09-14T05:53:11.137Z,13.20
2018-09-14T05:55:39.714Z,13.30
2018-09-14T05:58:08.152Z,13.40
2018-09-14T06:00:36.712Z,13.50
2018-09-14T06:03:05.166Z,13.60
2018-09-14T06:05:33.626Z,13.70
2018-09-14T06:08:02.153Z,13.80
2018-09-14T06:10:30.607Z,13.90
2018-09-14T06:12:59.030Z,14.00
2018-09-14T06:15:27.510Z,14.10
2018-09-14T06:17:55.951Z,14.20
2018-09-14T06:20:24.407Z,14.30
2018-09-14T06:22:52.962Z,14.40
2018-09-14T06:25:21.354Z,14.50
2018-09-14T06:27:49.858Z,14.60
2018-09-14T06:30:18.364Z,14.70
2018-09-14T06:32:46.806Z,14.80
2018-09-14T06:35:15.267Z,14.90
2018-09-14T06:37:43.800Z,15.00
2018-09-14T06:40:12.238Z,15.10
2018-09-14T06:42:40.666Z,15.10
2018-09-14T06:45:09.257Z,15.10
2018-09-14T06:47:37.686Z,15.20
2018-09-14T06:50:06.362Z,15.20
2018-09-14T06:52:34.910Z,15.30
2018-09-14T06:55:03.354Z,15.30
2018-09-14T06:57:31.806Z,15.40
2018-09-14T07:00:00.373Z,15.40
2018-09-14T07:02:28.788Z,15.40
2018-09-14T07:04:57.526Z,15.40
2018-09-14T07:07:26.023Z,15.30
2018-09-14T07:09:54.475Z,15.20
2018-09-14T07:12:22.937Z,15.10
2018-09-14T07:14:51.489Z,15.10
2018-09-14T07:17:19.951Z,15.00
2018-09-14T07:19:48.405Z,14.90
2018-09-14T07:22:17.312Z,14.90
2018-09-14T07:24:45.896Z,14.90
2018-09-14T07:27:14.158Z,14.90
2018-09-14T07:29:42.663Z,15.00
2018-09-14T07:32:11.117Z,15.10
2018-09-14T07:34:39.587Z,15.20
2018-09-14T07:37:08.129Z,15.30
2018-09-14T07:39:37.518Z,15.50
2018-09-14T07:42:06.023Z,15.60
2018-09-14T07:44:34.518Z,15.70
2018-09-14T07:47:02.975Z,15.80
2018-09-14T07:49:31.418Z,15.80
2018-09-14T07:51:59.906Z,15.90
2018-09-14T07:54:28.374Z,16.00
2018-09-14T07:56:56.815Z,16.00
2018-09-14T07:59:25.306Z,16.10
2018-09-14T08:01:53.766Z,16.10
2018-09-14T08:04:22.214Z,16.20
2018-09-14T08:06:50.730Z,16.30
2018-09-14T08:09:19.175Z,16.40
2018-09-14T08:11:47.739Z,16.40
2018-09-14T08:14:16.218Z,16.50
2018-09-14T08:16:44.682Z,16.60
2018-09-14T08:19:13.126Z,16.60
2018-09-14T08:21:41.737Z,16.60
2018-09-14T08:24:10.075Z,16.70
2018-09-14T08:26:38.606Z,16.70
2018-09-14T08:29:07.973Z,16.70
2018-09-14T08:31:36.438Z,16.70
2018-09-14T08:34:04.878Z,16.70
2018-09-14T08:36:33.406Z,16.80
2018-09-14T08:39:01.896Z,16.90
2018-09-14T08:41:30.439Z,17.00
2018-09-14T08:43:59.047Z,17.10
2018-09-14T08:46:27.521Z,17.10
2018-09-14T08:48:56.030Z,17.10
2018-09-14T08:51:25.158Z,17.10
2018-09-14T08:53:53.638Z,17.00
2018-09-14T08:56:22.091Z,16.90
2018-09-14T08:58:51.475Z,16.80
2018-09-14T09:01:19.931Z,16.70
2018-09-14T09:03:48.497Z,16.60
2018-09-14T09:06:17.017Z,16.50
2018-09-14T09:08:45.498Z,16.50
2018-09-14T09:11:13.973Z,16.60
2018-09-14T09:13:42.527Z,16.70
2018-09-14T09:16:11.024Z,16.90
2018-09-14T09:18:39.531Z,17.00
2018-09-14T09:21:08.148Z,17.10
2018-09-14T09:23:36.622Z,17.20
2018-09-14T09:26:05.167Z,17.30
2018-09-14T09:28:33.660Z,17.40
2018-09-14T09:31:02.314Z,17.50
2018-09-14T09:33:30.770Z,17.60
2018-09-14T09:35:59.337Z,17.70
2018-09-14T09:38:27.818Z,17.80
2018-09-14T09:40:56.402Z,17.80
2018-09-14T09:43:24.993Z,17.80
2018-09-14T09:45:53.502Z,17.80
2018-09-14T09:48:22.007Z,17.80
2018-09-14T09:50:50.750Z,17.80
2018-09-14T09:53:19.300Z,17.90
2018-09-14T09:55:47.738Z,17.90
2018-09-14T09:58:16.243Z,18.00
2018-09-14T10:00:49.999Z,18.10
2018-09-14T10:03:23.946Z,18.20
2018-09-14T10:06:00.922Z,18.20
2018-09-14T10:08:29.890Z,18.20
2018-09-14T10:10:58.346Z,18.30
2018-09-14T10:13:26.794Z,18.40
2018-09-14T10:15:55.246Z,18.40
2018-09-14T10:18:23.699Z,18.40
2018-09-14T12:59:22.570Z,19.90
2018-09-14T13:01:51.027Z,20.10
2018-09-14T13:04:19.562Z,20.10
2018-09-14T13:06:48.044Z,20.20
2018-09-14T13:09:16.489Z,20.10
2018-09-14T13:11:44.962Z,20.00
2018-09-14T13:14:13.483Z,20.00
2018-09-14T13:16:41.914Z,20.00
2018-09-14T13:19:10.354Z,20.00
2018-09-14T13:21:38.846Z,20.10
2018-09-14T13:24:07.395Z,20.10
2018-09-14T13:26:35.772Z,20.10
2018-09-14T13:29:04.257Z,20.10
2018-09-14T13:31:32.726Z,20.10
2018-09-14T13:34:01.238Z,20.10
2018-09-14T13:36:29.768Z,20.10
2018-09-14T13:38:58.446Z,20.10
2018-09-14T13:41:27.471Z,20.00
2018-09-14T13:43:56.022Z,19.90
2018-09-14T13:46:24.471Z,19.90
2018-09-14T13:48:52.910Z,19.90
2018-09-14T13:51:21.450Z,19.80
2018-09-14T13:53:49.907Z,19.80
2018-09-14T13:56:18.362Z,19.70
2018-09-14T13:58:46.890Z,19.60
2018-09-14T14:01:15.440Z,19.60
2018-09-14T14:03:43.882Z,19.60
2018-09-14T14:06:12.501Z,19.70
2018-09-14T14:08:40.994Z,19.70
2018-09-14T14:11:09.454Z,19.90
2018-09-14T14:13:37.958Z,19.90
2018-09-14T14:16:06.557Z,19.90
2018-09-14T14:18:35.138Z,19.80
2018-09-14T14:21:03.731Z,19.80
2018-09-14T14:23:32.212Z,19.70
2018-09-14T14:26:00.655Z,19.60
2018-09-14T14:28:29.174Z,19.60
2018-09-14T14:30:57.614Z,19.60
2018-09-14T14:33:26.062Z,19.60
2018-09-14T14:35:54.567Z,19.60
2018-09-14T14:38:23.010Z,19.60
2018-09-14T14:40:51.462Z,19.70
2018-09-14T14:43:19.970Z,19.80
2018-09-14T14:45:48.427Z,19.90
2018-09-14T14:48:16.867Z,19.90
2018-09-14T14:50:45.402Z,19.90
2018-09-14T14:53:13.922Z,19.80
2018-09-14T14:55:42.378Z,19.70
2018-09-14T14:58:11.100Z,19.40
2018-09-14T15:00:41.660Z,19.30
2018-09-14T15:03:13.867Z,19.10
2018-09-14T15:05:42.445Z,19.00
2018-09-14T15:08:12.184Z,19.00
2018-09-14T15:10:41.878Z,19.00
2018-09-14T15:13:15.869Z,19.10
2018-09-14T15:15:58.989Z,19.30
2018-09-14T15:18:27.524Z,19.30
2018-09-14T15:21:00.365Z,19.30
2018-09-14T15:23:28.870Z,19.10
2018-09-14T15:25:57.383Z,19.00
2018-09-14T15:28:26.236Z,18.80
2018-09-14T15:30:54.695Z,18.70
2018-09-14T15:33:23.194Z,18.60
2018-09-14T15:35:51.722Z,18.60
2018-09-14T15:38:20.211Z,18.70
2018-09-14T15:40:48.662Z,18.70
2018-09-14T15:43:17.298Z,18.80
2018-09-14T15:45:45.771Z,18.80
2018-09-14T15:48:14.207Z,18.70
2018-09-14T15:50:42.734Z,18.60
2018-09-14T15:53:11.245Z,18.40
2018-09-14T15:55:39.850Z,18.30
2018-09-14T15:58:08.410Z,18.20
2018-09-14T16:00:36.879Z,18.20
2018-09-14T16:03:05.366Z,18.10
2018-09-14T16:05:33.906Z,18.00
2018-09-14T16:08:02.605Z,18.00
2018-09-14T16:10:31.201Z,17.90
2018-09-14T16:13:00.101Z,17.90
2018-09-14T16:15:29.647Z,17.80
2018-09-14T16:17:58.608Z,17.80
2018-09-14T16:20:27.293Z,17.70
2018-09-14T16:22:55.890Z,17.70
2018-09-14T16:25:25.138Z,17.70
2018-09-14T16:27:53.843Z,17.60
2018-09-14T16:30:22.323Z,17.60
2018-09-14T16:32:51.214Z,17.50
2018-09-14T16:35:19.740Z,17.50
2018-09-14T16:37:48.207Z,17.40
2018-09-14T16:40:16.690Z,17.40
2018-09-14T16:42:45.210Z,17.40
2018-09-14T16:45:13.710Z,17.30
2018-09-14T16:47:42.361Z,17.20
2018-09-14T16:50:10.894Z,17.20
2018-09-14T16:52:39.362Z,17.10
2018-09-14T16:55:07.854Z,17.10
2018-09-14T16:57:36.441Z,17.00
2018-09-14T17:00:09.128Z,17.00
2018-09-14T17:02:37.815Z,17.00
2018-09-14T17:05:06.506Z,16.90
2018-09-14T17:07:34.974Z,16.90
2018-09-14T17:10:03.569Z,16.80
2018-09-14T17:12:32.378Z,16.80
2018-09-14T17:15:00.834Z,16.70
2018-09-14T17:17:29.399Z,16.60
2018-09-14T17:19:57.883Z,16.60
2018-09-14T17:22:26.403Z,16.50
2018-09-14T17:24:54.966Z,16.50
2018-09-14T17:27:23.463Z,16.40
2018-09-14T17:29:54.755Z,16.40
2018-09-14T17:32:24.776Z,16.30
2018-09-14T17:34:53.299Z,16.30
2018-09-14T17:37:21.791Z,16.30
2018-09-14T17:39:50.302Z,16.20
2018-09-14T17:42:18.782Z,16.20
2018-09-14T17:44:47.255Z,16.10
2018-09-14T17:47:15.776Z,16.10
2018-09-14T17:49:44.251Z,16.10
2018-09-14T17:52:12.730Z,16.00
2018-09-14T17:54:41.258Z,16.00
2018-09-14T17:57:09.834Z,15.90
2018-09-14T17:59:38.309Z,15.90
2018-09-14T18:02:07.083Z,15.90
2018-09-14T18:04:35.570Z,15.80
2018-09-14T18:07:04.079Z,15.90
2018-09-14T18:09:32.635Z,15.80
2018-09-14T18:12:01.155Z,15.80
2018-09-14T18:14:29.695Z,15.80
2018-09-14T18:16:58.734Z,15.80
2018-09-14T18:19:27.234Z,15.80
2018-09-14T18:21:55.780Z,15.70
2018-09-14T18:24:24.718Z,15.70
2018-09-14T18:26:53.404Z,15.70
2018-09-14T18:29:21.878Z,15.70
2018-09-14T18:31:50.466Z,15.70
2018-09-14T18:34:18.949Z,15.70
2018-09-14T18:36:47.685Z,15.70
2018-09-14T18:39:16.291Z,15.70
2018-09-14T18:41:44.746Z,15.70
2018-09-14T18:44:13.236Z,15.60
2018-09-14T18:46:41.846Z,15.60
2018-09-14T18:49:10.602Z,15.60
2018-09-14T18:51:39.087Z,15.60
2018-09-14T18:54:07.788Z,15.60
2018-09-14T18:56:36.357Z,15.50
2018-09-14T18:59:05.016Z,15.50
2018-09-14T19:01:33.530Z,15.50
2018-09-14T19:04:01.979Z,15.50
2018-09-14T19:06:30.422Z,15.50
2018-09-14T19:08:58.954Z,15.50
2018-09-14T19:11:27.412Z,15.40
2018-09-14T19:13:55.872Z,15.50
2018-09-14T19:16:24.363Z,15.40
2018-09-14T19:18:52.832Z,15.40
2018-09-14T19:21:21.278Z,15.50
2018-09-14T19:23:49.807Z,15.50
2018-09-14T19:26:18.270Z,15.50
2018-09-14T19:28:46.714Z,15.50
2018-09-14T19:31:15.286Z,15.50
2018-09-14T19:33:43.787Z,15.50
2018-09-14T19:36:12.294Z,15.50
2018-09-14T19:38:40.852Z,15.50
2018-09-14T19:41:09.307Z,15.50
2018-09-14T19:50:22.155Z,15.50
2018-09-14T19:52:50.562Z,15.50
2018-09-14T19:55:19.017Z,15.40
2018-09-14T19:57:47.550Z,15.40
2018-09-14T20:00:16.035Z,15.40
2018-09-14T20:02:44.494Z,15.40
2018-09-14T20:05:13.017Z,15.50
2018-09-14T20:07:41.474Z,15.50
2018-09-14T20:10:09.924Z,15.50
2018-09-14T20:12:38.394Z,15.50
2018-09-14T20:15:07.243Z,15.50
2018-09-14T20:17:35.720Z,15.50
2018-09-14T20:20:04.251Z,15.50
2018-09-14T20:22:32.692Z,15.50
2018-09-14T20:25:01.330Z,15.50
2018-09-14T20:27:29.832Z,15.40
2018-09-14T20:29:58.274Z,15.40
2018-09-14T20:32:26.705Z,15.40
2018-09-14T20:34:55.270Z,15.40
2018-09-14T20:37:24.690Z,15.40
2018-09-14T20:39:53.082Z,15.40
2018-09-14T20:42:21.575Z,15.40
2018-09-14T20:44:50.033Z,15.40
2018-09-14T20:47:18.491Z,15.40
2018-09-14T20:49:47.002Z,15.40
2018-09-14T20:52:15.462Z,15.50
2018-09-14T20:54:43.976Z,15.40
2018-09-14T20:57:12.482Z,15.50
2018-09-14T20:59:41.002Z,15.40
2018-09-14T21:02:09.442Z,15.50
2018-09-14T21:04:37.929Z,15.50
2018-09-14T21:07:06.514Z,15.50
2018-09-14T21:09:34.967Z,15.50
2018-09-14T21:12:03.479Z,15.60
2018-09-14T21:14:31.941Z,15.60
2018-09-14T21:17:00.378Z,15.60
2018-09-14T21:19:28.911Z,15.60
2018-09-14T21:21:57.386Z,15.60
2018-09-14T21:24:25.862Z,15.60
2018-09-14T21:26:54.670Z,15.60
2018-09-14T21:29:23.382Z,15.60
2018-09-14T21:31:51.825Z,15.60
2018-09-14T21:34:20.391Z,15.60
2018-09-14T21:36:48.922Z,15.60
2018-09-14T21:39:17.362Z,15.60
2018-09-14T21:41:45.867Z,15.70
2018-09-14T21:44:14.322Z,15.70
2018-09-14T21:46:42.786Z,15.70
2018-09-14T21:49:11.272Z,15.70
2018-09-14T21:51:39.756Z,15.70
2018-09-14T21:54:08.271Z,15.70
2018-09-14T21:56:36.737Z,15.70
2018-09-14T21:59:05.287Z,15.70
2018-09-14T22:01:33.766Z,15.70
2018-09-14T22:04:02.242Z,15.70
2018-09-14T22:06:30.685Z,15.70
2018-09-14T22:08:59.147Z,15.70
2018-09-14T22:18:12.199Z,15.70
2018-09-14T22:20:40.650Z,15.70
2018-09-14T22:23:09.113Z,15.70
2018-09-14T22:25:37.581Z,15.70
2018-09-14T22:28:06.284Z,15.70
2018-09-14T22:30:34.742Z,15.60
2018-09-14T22:33:03.286Z,15.60
2018-09-14T22:35:31.728Z,15.60
2018-09-14T22:38:00.155Z,15.60
2018-09-14T22:40:28.654Z,15.60
2018-09-14T22:42:57.082Z,15.60
2018-09-14T22:45:25.522Z,15.60
2018-09-14T22:47:54.014Z,15.60
2018-09-14T22:50:22.482Z,15.60
2018-09-14T22:52:51.042Z,15.60
2018-09-14T22:55:19.618Z,15.60
2018-09-14T22:57:48.084Z,15.60
2018-09-14T23:00:21.978Z,15.60
2018-09-14T23:02:50.491Z,15.60
2018-09-14T23:05:19.024Z,15.60
2018-09-14T23:07:47.634Z,15.60
2018-09-14T23:10:16.218Z,15.60
2018-09-14T23:12:44.894Z,15.60
2018-09-14T23:15:13.388Z,15.50
2018-09-14T23:17:41.847Z,15.50
2018-09-14T23:20:10.312Z,15.50
2018-09-14T23:22:39.511Z,15.50
2018-09-14T23:25:07.990Z,15.50
2018-09-14T23:27:36.478Z,15.50
2018-09-14T23:30:05.224Z,15.40
2018-09-14T23:32:33.677Z,15.40
2018-09-14T23:35:02.110Z,15.40
2018-09-14T23:37:30.583Z,15.40
2018-09-14T23:39:59.187Z,15.40
2018-09-14T23:42:27.622Z,15.40
2018-09-14T23:44:56.153Z,15.40
2018-09-14T23:47:24.598Z,15.40
2018-09-14T23:49:53.051Z,15.40
2018-09-14T23:52:21.527Z,15.40
2018-09-14T23:54:49.961Z,15.40
2018-09-14T23:57:18.431Z,15.40
2018-09-14T23:59:46.924Z,15.50
